Time;durP1;ratioP1;P1;durP2;ratioP2;P2;SDS_P1;SDS_P2;PMS_P1;PMS_P2;Temp;Humidity;BMP_temperature;BMP_pressure;BME280_temperature;BME280_humidity;BME280_pressure;Samples;Min_cycle;Max_cycle;Signal;HPM_P1;HPM_P2
2023/01/05 00:01:41;;;;;;;25.55;12.03;;;;;;;10.31;45.38;99989.41;1732462;82;21090;-64
2023/01/05 00:04:07;;;;;;;18.02;11.15;;;;;;;10.05;46.01;99998.23;1732792;81;21578;-65
2023/01/05 00:06:36;;;;;;;21.10;11.75;;;;;;;10.63;45.54;99990.80;1762434;81;21046;-64
2023/01/05 00:09:03;;;;;;;20.27;11.45;;;;;;;10.55;45.44;99984.95;1762223;81;21116;-64
2023/01/05 00:22:47;;;;;;;20.35;11.15;;;;;;;10.31;45.63;99946.41;1762698;81;21572;-64
2023/01/05 00:25:25;;;;;;;17.85;10.10;;;;;;;11.13;44.37;99939.13;1762855;81;21227;-65
2023/01/05 00:27:52;;;;;;;19.10;9.70;;;;;;;10.27;45.68;99922.82;1763017;81;22278;-63
2023/01/05 00:30:23;;;;;;;24.00;10.60;;;;;;;10.74;45.52;99922.33;1762658;81;21045;-66
2023/01/05 00:32:49;;;;;;;18.30;10.58;;;;;;;10.80;44.55;99918.13;1762798;81;21060;-64
2023/01/05 00:35:16;;;;;;;19.87;10.23;;;;;;;11.07;44.13;99909.08;1762351;81;21519;-65
2023/01/05 00:37:44;;;;;;;14.87;9.13;;;;;;;11.03;44.62;99898.27;1710492;83;21062;-64
2023/01/05 00:40:15;;;;;;;15.95;9.83;;;;;;;10.59;45.01;99886.49;1710464;83;21054;-64
2023/01/05 00:42:41;;;;;;;25.00;10.88;;;;;;;11.22;44.07;99881.66;1708583;84;21590;-65
2023/01/05 00:45:11;;;;;;;24.30;11.50;;;;;;;11.20;43.81;99880.39;1710199;83;21031;-65
2023/01/05 00:47:38;;;;;;;22.52;11.65;;;;;;;11.13;44.02;99862.70;1710406;83;21145;-66
2023/01/05 00:50:07;;;;;;;18.95;11.22;;;;;;;10.41;45.28;99854.33;1710295;83;21073;-66
2023/01/05 00:52:35;;;;;;;19.37;10.13;;;;;;;10.92;44.48;99849.97;1710574;83;21125;-65
2023/01/05 00:55:01;;;;;;;18.15;9.00;;;;;;;10.33;45.34;99839.30;1710351;83;21062;-64
2023/01/05 00:57:29;;;;;;;18.87;10.00;;;;;;;10.71;45.39;99842.52;1710486;83;21026;-65
2023/01/05 00:59:57;;;;;;;17.90;11.10;;;;;;;10.96;44.46;99841.95;1740016;82;21366;-66
2023/01/05 01:02:23;;;;;;;19.65;10.10;;;;;;;11.12;44.38;99839.89;1710347;83;21574;-64
2023/01/05 01:04:50;;;;;;;22.40;10.58;;;;;;;11.13;44.24;99832.39;1707787;83;21049;-65
2023/01/05 01:07:16;;;;;;;19.27;11.00;;;;;;;11.13;44.21;99824.48;1746110;82;21107;-64
2023/01/05 01:09:43;;;;;;;17.30;9.25;;;;;;;11.29;44.09;99805.33;1746197;82;21083;-64
2023/01/05 01:12:10;;;;;;;23.07;11.48;;;;;;;10.60;45.07;99792.55;1746059;82;21195;-63
2023/01/05 01:14:38;;;;;;;24.15;11.97;;;;;;;10.64;45.34;99794.13;1746093;82;21040;-64
2023/01/05 01:17:05;;;;;;;22.13;11.48;;;;;;;11.11;44.56;99780.21;1746015;82;21648;-63
2023/01/05 01:19:32;;;;;;;21.27;11.75;;;;;;;10.87;44.69;99772.06;1746145;82;21057;-65
2023/01/05 01:22:00;;;;;;;23.98;11.18;;;;;;;11.30;44.06;99762.24;1746093;82;21040;-65
2023/01/05 01:24:28;;;;;;;21.30;11.73;;;;;;;11.09;44.51;99763.61;1745787;82;21290;-64
2023/01/05 01:26:55;;;;;;;21.93;11.25;;;;;;;10.97;44.85;99757.55;1745799;82;21551;-64
2023/01/05 01:29:23;;;;;;;24.27;11.60;;;;;;;11.30;44.40;99743.79;1746148;82;21024;-64
2023/01/05 01:31:51;;;;;;;24.87;12.37;;;;;;;11.05;44.46;99750.17;1746075;82;21509;-65
2023/01/05 01:34:19;;;;;;;20.45;11.03;;;;;;;11.23;44.48;99743.22;1746143;82;21001;-65
2023/01/05 01:36:45;;;;;;;20.15;10.88;;;;;;;10.81;45.28;99736.33;1754325;80;21132;-66
2023/01/05 01:39:14;;;;;;;22.27;9.85;;;;;;;10.86;45.24;99726.91;1762581;81;21059;-63
2023/01/05 01:41:43;;;;;;;21.17;12.07;;;;;;;11.22;44.50;99716.91;1762710;81;21051;-64
2023/01/05 01:44:55;;;;;;;20.43;10.58;;;;;;;11.33;44.11;99714.17;1763093;81;21513;-64
2023/01/05 01:47:32;;;;;;;20.70;12.10;;;;;;;11.13;44.66;99711.16;1762526;81;21099;-63
2023/01/05 01:50:03;;;;;;;17.25;9.90;;;;;;;11.77;43.77;99702.43;1762623;81;21722;-64
2023/01/05 01:52:30;;;;;;;20.02;11.18;;;;;;;11.29;44.39;99694.61;1762841;81;20996;-64
2023/01/05 01:54:57;;;;;;;19.90;11.43;;;;;;;11.33;44.23;99673.78;1762566;81;21040;-63
2023/01/05 01:57:25;;;;;;;19.17;11.00;;;;;;;11.45;44.34;99660.47;1759739;81;21108;-64
2023/01/05 01:59:51;;;;;;;17.42;10.32;;;;;;;11.17;44.78;99666.20;1759537;81;21575;-63
2023/01/05 02:02:20;;;;;;;19.07;10.82;;;;;;;11.37;44.32;99651.63;1759282;81;21097;-65
2023/01/05 02:04:47;;;;;;;21.40;10.05;;;;;;;11.28;44.58;99638.41;1750402;81;22138;-64
2023/01/05 02:07:14;;;;;;;19.70;11.05;;;;;;;10.69;45.23;99636.30;1729089;83;21044;-64
2023/01/05 02:09:42;;;;;;;14.43;7.55;;;;;;;11.26;44.74;99632.83;1728981;83;21210;-64
2023/01/05 02:12:44;;;;;;;21.37;9.93;;;;;;;11.28;44.65;99617.80;1728975;83;21115;-64
2023/01/05 02:15:47;;;;;;;20.40;11.03;;;;;;;11.83;43.64;99603.20;1729061;83;21498;-64
2023/01/05 02:18:40;;;;;;;22.35;10.98;;;;;;;12.02;43.43;99602.30;1728686;83;21079;-65
2023/01/05 02:21:30;;;;;;;23.25;8.43;;;;;;;11.56;43.81;99592.24;1729054;83;21116;-63
2023/01/05 02:24:25;;;;;;;16.93;8.80;;;;;;;11.48;43.81;99591.31;1724348;82;21100;-64
2023/01/05 02:27:10;;;;;;;20.02;11.38;;;;;;;11.85;43.75;99567.05;1727741;83;21036;-65
2023/01/05 02:30:16;;;;;;;20.45;10.00;;;;;;;12.51;42.37;99558.78;1729000;83;21157;-65
2023/01/05 02:32:58;;;;;;;20.55;10.32;;;;;;;12.66;42.00;99559.28;1728389;83;21096;-65
2023/01/05 02:37:44;;;;;;;20.33;10.30;;;;;;;6.28;60.69;99562.38;1796563;79;22746;-65
2023/01/05 02:40:22;;;;;;;21.52;10.68;;;;;;;9.68;49.25;99536.79;1756218;81;21080;-64
2023/01/05 02:42:50;;;;;;;20.23;9.88;;;;;;;10.81;47.07;99526.92;1756257;81;21086;-65
2023/01/05 02:45:21;;;;;;;14.50;9.53;;;;;;;10.92;46.17;99531.66;1756272;81;20977;-64
2023/01/05 02:47:50;;;;;;;24.18;9.93;;;;;;;11.05;45.65;99532.78;1694582;83;21051;-64
2023/01/05 02:50:23;;;;;;;18.57;10.20;;;;;;;11.42;45.50;99532.28;1719478;83;22174;-64
2023/01/05 02:53:11;;;;;;;17.92;10.15;;;;;;;11.48;44.95;99517.48;1715146;83;21541;-64
2023/01/05 02:55:54;;;;;;;22.15;9.90;;;;;;;11.60;44.58;99513.37;1707394;83;21165;-65
2023/01/05 02:58:33;;;;;;;18.05;10.38;;;;;;;12.32;43.45;99508.28;1707264;84;21020;-65
2023/01/05 03:01:11;;;;;;;17.57;10.50;;;;;;;11.81;44.20;99499.53;1707492;84;21113;-65
2023/01/05 03:03:56;;;;;;;20.57;11.30;;;;;;;12.31;43.56;99497.83;1707374;84;21081;-64
2023/01/05 03:06:47;;;;;;;18.48;10.28;;;;;;;12.46;43.31;99488.20;1707564;84;21045;-64
2023/01/05 03:09:18;;;;;;;21.87;11.15;;;;;;;12.12;43.53;99486.94;1707469;84;21136;-65
2023/01/05 03:14:53;;;;;;;21.05;11.48;;;;;;;12.99;41.97;99460.55;1707397;84;21668;-64
2023/01/05 03:17:44;;;;;;;21.52;11.83;;;;;;;12.70;42.59;99456.91;1707520;83;21105;-64
2023/01/05 03:20:13;;;;;;;;;;;;;;;12.98;42.16;99438.55;1710410;84;21096;-64
2023/01/05 03:37:18;;;;;;;26.25;13.48;;;;;;;12.05;44.56;99372.53;1650103;87;21292;-63
2023/01/05 03:39:45;;;;;;;27.02;13.43;;;;;;;11.72;45.11;99377.36;1650015;87;21065;-62
2023/01/05 03:42:14;;;;;;;23.12;11.93;;;;;;;11.88;45.28;99375.63;1650361;87;21173;-63
2023/01/05 03:44:43;;;;;;;23.27;13.25;;;;;;;11.79;45.47;99365.54;1649935;87;21118;-64
2023/01/05 03:47:13;;;;;;;25.37;13.80;;;;;;;12.28;44.78;99364.17;1649805;87;21153;-63
2023/01/05 03:49:39;;;;;;;27.07;12.58;;;;;;;12.56;44.47;99352.91;1649364;85;21260;-63
2023/01/05 03:52:07;;;;;;;23.92;13.03;;;;;;;12.35;44.37;99347.08;1649427;86;21109;-63
2023/01/05 03:54:34;;;;;;;25.23;13.70;;;;;;;11.87;45.53;99340.95;1649466;87;21568;-63
2023/01/05 03:57:01;;;;;;;29.52;14.30;;;;;;;12.16;45.37;99343.75;1649696;87;21047;-63
2023/01/05 03:59:28;;;;;;;27.80;15.35;;;;;;;11.99;45.82;99330.67;1649546;87;21063;-63
2023/01/05 04:01:55;;;;;;;28.73;16.27;;;;;;;12.60;45.38;99309.98;1649450;87;21352;-63
2023/01/05 04:04:24;;;;;;;31.97;15.70;;;;;;;12.38;45.70;99299.84;1653650;85;21661;-62
2023/01/05 04:06:51;;;;;;;29.52;15.30;;;;;;;12.21;46.04;99294.19;1684449;85;21040;-63
2023/01/05 04:09:18;;;;;;;29.20;14.25;;;;;;;12.62;45.57;99283.02;1684444;85;21070;-61
2023/01/05 04:11:45;;;;;;;32.53;17.30;;;;;;;11.58;47.56;99284.95;1684730;85;21599;-63
2023/01/05 04:14:12;;;;;;;34.45;17.27;;;;;;;12.12;46.99;99290.75;1684478;85;21179;-64
2023/01/05 04:16:39;;;;;;;34.75;18.42;;;;;;;12.18;46.57;99281.17;1684368;84;21511;-63
2023/01/05 04:19:10;;;;;;;34.03;17.87;;;;;;;12.62;46.17;99263.21;1683475;85;21536;-63
2023/01/05 04:21:36;;;;;;;35.15;18.20;;;;;;;12.64;46.12;99257.37;1684513;85;21110;-63
2023/01/05 04:24:05;;;;;;;37.30;19.57;;;;;;;12.51;46.48;99247.98;1684304;85;21082;-64
2023/01/05 04:26:32;;;;;;;38.10;17.62;;;;;;;13.17;45.35;99261.20;1684335;85;21129;-61
2023/01/05 04:28:59;;;;;;;47.70;20.72;;;;;;;12.31;46.77;99240.41;1688994;84;21602;-63
2023/01/05 04:31:27;;;;;;;41.37;21.85;;;;;;;12.12;47.40;99234.00;1690190;84;21063;-62
2023/01/05 04:33:55;;;;;;;44.80;23.32;;;;;;;12.06;47.76;99234.38;1690036;84;21091;-62
2023/01/05 04:36:23;;;;;;;45.83;22.55;;;;;;;11.62;48.89;99229.77;1690223;84;21015;-62
2023/01/05 04:38:49;;;;;;;43.87;23.02;;;;;;;12.22;47.98;99223.31;1690311;84;21990;-64
2023/01/05 04:41:17;;;;;;;26.37;14.03;;;;;;;12.47;47.47;99207.33;1690294;84;21118;-62
2023/01/05 04:43:45;;;;;;;37.38;19.27;;;;;;;12.07;48.32;99203.08;1690464;84;21075;-62
2023/01/05 04:46:14;;;;;;;39.40;20.97;;;;;;;12.27;48.12;99193.53;1690474;84;21078;-63
2023/01/05 04:48:43;;;;;;;35.58;15.40;;;;;;;11.95;48.92;99204.64;1690419;83;21040;-63
2023/01/05 04:51:10;;;;;;;38.23;18.25;;;;;;;12.31;48.06;99168.66;1690368;84;21120;-62
2023/01/05 04:53:37;;;;;;;43.78;22.37;;;;;;;12.50;47.86;99160.95;1690455;84;21078;-61
2023/01/05 04:56:06;;;;;;;42.85;18.17;;;;;;;12.80;47.49;99153.78;1690317;84;21095;-62
2023/01/05 04:58:37;;;;;;;42.98;23.05;;;;;;;12.96;47.26;99143.59;1690243;84;21185;-64
2023/01/05 05:01:05;;;;;;;49.50;26.15;;;;;;;12.64;47.68;99149.07;1690273;84;21071;-63
2023/01/05 05:03:33;;;;;;;42.93;23.35;;;;;;;12.68;47.67;99134.73;1690306;84;21692;-62
2023/01/05 05:06:00;;;;;;;51.40;24.02;;;;;;;12.04;49.08;99134.66;1664113;84;21591;-64
2023/01/05 05:08:27;;;;;;;49.98;25.88;;;;;;;11.61;50.29;99122.59;1657563;85;21056;-62
2023/01/05 05:10:55;;;;;;;47.05;24.37;;;;;;;11.82;50.11;99120.03;1657423;86;21045;-63
2023/01/05 05:13:22;;;;;;;39.60;19.35;;;;;;;11.95;49.96;99114.45;1637186;86;21125;-62
2023/01/05 05:15:50;;;;;;;46.28;26.70;;;;;;;11.43;51.13;99113.47;1657339;86;21166;-62
2023/01/05 05:18:17;;;;;;;47.50;23.65;;;;;;;12.62;48.68;99110.02;1657549;86;21064;-62
2023/01/05 05:20:44;;;;;;;41.05;20.80;;;;;;;13.08;47.22;99108.45;1657353;86;21103;-63
2023/01/05 05:23:11;;;;;;;54.63;26.65;;;;;;;12.49;48.63;99097.18;1638407;86;21591;-63
2023/01/05 05:25:38;;;;;;;57.55;29.80;;;;;;;12.61;48.86;99099.09;1657272;86;21056;-62
2023/01/05 05:28:04;;;;;;;34.88;19.30;;;;;;;12.86;48.62;99081.68;1652950;86;21111;-63
2023/01/05 05:30:31;;;;;;;45.78;25.02;;;;;;;12.92;48.55;99084.79;1645707;86;21145;-62
2023/01/05 05:32:58;;;;;;;44.88;21.17;;;;;;;12.88;48.71;99083.76;1642870;87;21153;-62
2023/01/05 05:35:26;;;;;;;44.98;22.15;;;;;;;12.62;49.62;99067.75;1642832;87;21179;-62
2023/01/05 05:37:52;;;;;;;45.98;21.75;;;;;;;12.41;50.16;99065.13;1643061;87;21050;-61
2023/01/05 05:40:19;;;;;;;33.18;19.48;;;;;;;12.38;50.41;99078.89;1642829;87;21270;-62
2023/01/05 05:42:45;;;;;;;33.67;19.70;;;;;;;13.16;48.85;99067.85;1642996;87;21551;-62
2023/01/05 05:45:12;;;;;;;31.97;16.12;;;;;;;13.14;48.67;99060.49;1642916;87;21085;-63
2023/01/05 05:47:39;;;;;;;40.33;21.00;;;;;;;12.47;50.23;99029.09;1642990;87;21070;-62
2023/01/05 05:50:08;;;;;;;35.15;18.35;;;;;;;13.44;48.49;99040.96;1642913;87;21103;-62
2023/01/05 05:52:35;;;;;;;29.07;16.62;;;;;;;13.20;49.01;99024.41;1643004;87;21155;-64
2023/01/05 05:55:02;;;;;;;35.03;19.17;;;;;;;13.57;48.30;99022.01;1642543;87;21090;-62
2023/01/05 05:57:29;;;;;;;37.38;19.30;;;;;;;14.09;47.21;99012.78;1642978;87;21558;-62
2023/01/05 05:59:56;;;;;;;34.05;17.80;;;;;;;14.05;47.19;99010.81;1642673;87;21130;-64
2023/01/05 06:02:22;;;;;;;37.48;19.02;;;;;;;14.26;46.78;98999.20;1642922;87;21133;-63
2023/01/05 06:04:49;;;;;;;31.52;17.45;;;;;;;13.72;47.89;98999.44;1631968;87;21174;-62
2023/01/05 06:07:16;;;;;;;31.82;17.87;;;;;;;13.90;47.53;98990.23;1607273;89;21074;-63
2023/01/05 06:09:43;;;;;;;35.95;17.90;;;;;;;13.85;47.52;98989.71;1607074;89;21094;-63
2023/01/05 06:12:10;;;;;;;33.15;18.57;;;;;;;13.51;48.21;98981.41;1607172;89;21095;-63
2023/01/05 06:14:38;;;;;;;34.30;19.75;;;;;;;13.91;47.76;98976.03;1607006;89;21094;-63
2023/01/05 06:17:05;;;;;;;33.05;18.55;;;;;;;13.92;47.86;98972.45;1607082;89;21176;-63
2023/01/05 06:19:32;;;;;;;30.82;18.73;;;;;;;13.54;48.25;98972.42;1607063;88;21118;-64
2023/01/05 06:21:59;;;;;;;38.10;20.05;;;;;;;13.86;47.94;98959.63;1607240;89;21080;-63
2023/01/05 06:24:25;;;;;;;37.90;19.12;;;;;;;13.62;48.48;98955.56;1607390;89;21669;-63
2023/01/05 06:26:52;;;;;;;35.63;19.17;;;;;;;13.09;49.81;98959.50;1607129;88;21597;-63
2023/01/05 06:29:18;;;;;;;30.97;15.60;;;;;;;13.58;49.01;98961.53;1607205;89;21786;-63
2023/01/05 06:31:45;;;;;;;31.55;17.95;;;;;;;13.25;49.63;98961.98;1622843;88;21098;-63
2023/01/05 06:34:11;;;;;;;32.23;18.20;;;;;;;13.36;49.60;98944.09;1624780;88;21070;-62
2023/01/05 06:36:38;;;;;;;30.72;12.33;;;;;;;13.51;49.52;98939.58;1624684;88;21058;-63
2023/01/05 06:39:04;;;;;;;32.95;18.15;;;;;;;13.31;49.18;98944.40;1624778;88;21069;-63
2023/01/05 06:41:34;;;;;;;34.40;18.73;;;;;;;15.59;45.47;98938.72;1624837;88;21560;-63
2023/01/05 06:44:00;;;;;;;35.60;18.70;;;;;;;12.63;50.81;98940.50;1624857;88;21102;-63
2023/01/05 06:46:27;;;;;;;31.95;18.27;;;;;;;12.27;52.04;98938.79;1624808;88;21031;-63
2023/01/05 06:48:53;;;;;;;23.50;12.50;;;;;;;12.19;52.82;98937.09;1624885;88;21110;-62
2023/01/05 06:51:21;;;;;;;33.53;18.37;;;;;;;12.17;53.31;98923.17;1624772;88;21066;-62
2023/01/05 06:53:48;;;;;;;35.05;18.23;;;;;;;12.45;52.75;98921.42;1624831;88;21251;-62
2023/01/05 06:56:15;;;;;;;35.30;19.07;;;;;;;12.57;52.60;98917.98;1624788;88;21645;-63
2023/01/05 06:58:41;;;;;;;34.45;15.75;;;;;;;13.25;51.25;98921.45;1624980;86;21049;-64
2023/01/05 07:01:08;;;;;;;38.02;19.32;;;;;;;12.46;52.63;98925.74;1624596;88;21129;-63
2023/01/05 07:03:34;;;;;;;39.18;18.85;;;;;;;12.64;53.01;98916.64;1624914;88;20995;-62
2023/01/05 07:06:03;;;;;;;41.85;21.52;;;;;;;12.76;52.43;98915.83;1678520;84;21550;-63
2023/01/05 07:08:29;;;;;;;35.98;20.20;;;;;;;13.43;51.18;98893.80;1692117;84;21045;-63
2023/01/05 07:10:57;;;;;;;35.55;19.55;;;;;;;12.86;52.02;98909.49;1691939;84;21069;-62
2023/01/05 07:13:24;;;;;;;33.88;16.42;;;;;;;13.03;51.84;98896.47;1691917;84;21109;-63
2023/01/05 07:15:50;;;;;;;41.30;18.62;;;;;;;13.25;51.59;98896.34;1691850;84;21018;-63
2023/01/05 07:18:17;;;;;;;38.40;20.00;;;;;;;13.20;51.87;98894.88;1691952;84;21154;-65
2023/01/05 07:20:43;;;;;;;37.65;20.10;;;;;;;13.13;52.31;98898.86;1657903;84;21072;-62
2023/01/05 07:23:10;;;;;;;45.25;20.40;;;;;;;12.93;52.79;98898.02;1647178;87;21103;-62
2023/01/05 07:25:37;;;;;;;38.78;21.62;;;;;;;13.04;52.51;98874.36;1647213;87;21604;-63
2023/01/05 07:28:04;;;;;;;30.50;17.40;;;;;;;13.37;52.05;98880.53;1657239;86;21071;-63
2023/01/05 07:30:30;;;;;;;33.92;18.12;;;;;;;13.85;50.92;98858.23;1656393;86;21262;-64
2023/01/05 07:32:59;;;;;;;35.28;19.70;;;;;;;13.75;51.28;98855.02;1658861;86;21120;-63
2023/01/05 07:35:27;;;;;;;27.67;16.57;;;;;;;13.69;51.41;98860.27;1658556;85;21557;-64
2023/01/05 07:37:56;;;;;;;38.17;18.20;;;;;;;13.60;51.96;98868.37;1658875;86;21085;-63
2023/01/05 07:40:22;;;;;;;36.33;18.85;;;;;;;13.37;52.61;98855.89;1658924;86;21145;-63
2023/01/05 07:42:52;;;;;;;35.55;18.80;;;;;;;14.18;51.14;98854.61;1659212;85;21187;-62
2023/01/05 07:45:19;;;;;;;40.48;21.40;;;;;;;14.34;50.63;98847.73;1658710;86;21073;-61
2023/01/05 07:47:46;;;;;;;31.52;17.90;;;;;;;14.57;50.22;98835.47;1658932;86;21112;-64
2023/01/05 07:50:13;;;;;;;39.78;21.07;;;;;;;14.57;50.22;98835.47;1658883;85;21070;-63
2023/01/05 07:52:40;;;;;;;33.25;19.95;;;;;;;14.50;50.30;98839.50;1659082;85;21132;-63
2023/01/05 07:55:08;;;;;;;34.18;17.98;;;;;;;14.59;50.22;98837.05;1658836;85;21152;-63
2023/01/05 07:57:36;;;;;;;35.75;19.82;;;;;;;14.62;50.43;98832.83;1658957;86;21105;-63
2023/01/05 08:00:04;;;;;;;32.98;18.25;;;;;;;14.22;51.44;98830.94;1658994;86;21097;-63
2023/01/05 08:02:34;;;;;;;36.42;19.37;;;;;;;15.05;49.92;98827.45;1658236;86;21097;-63
2023/01/05 08:05:01;;;;;;;38.92;19.65;;;;;;;14.97;49.29;98814.76;1656056;86;21131;-62
2023/01/05 08:07:28;;;;;;;34.27;20.23;;;;;;;14.93;49.70;98808.02;1651398;86;21112;-63
2023/01/05 08:15:24;;;;;;;43.45;21.52;;;;;;;15.10;49.74;98790.81;1651439;86;21047;-63
2023/01/05 08:17:51;;;;;;;43.45;21.20;;;;;;;14.76;50.47;98790.73;1651489;86;21606;-63
2023/01/05 08:20:18;;;;;;;38.65;22.05;;;;;;;15.46;49.15;98780.94;1651599;86;21149;-62
2023/01/05 08:22:50;;;;;;;38.48;21.40;;;;;;;15.47;48.90;98782.64;1651296;86;21164;-64
2023/01/05 08:25:19;;;;;;;34.80;20.08;;;;;;;15.55;48.63;98770.09;1651709;86;21087;-63
2023/01/05 08:27:46;;;;;;;34.60;20.00;;;;;;;15.27;49.21;98769.13;1651462;86;21043;-62
2023/01/05 08:30:13;;;;;;;34.48;20.25;;;;;;;15.45;49.06;98758.04;1651524;86;21114;-63
2023/01/05 08:32:40;;;;;;;37.33;20.48;;;;;;;16.00;48.07;98763.44;1642827;86;21205;-62
2023/01/05 08:35:08;;;;;;;37.75;20.52;;;;;;;15.63;48.78;98767.20;1641948;86;21124;-62
2023/01/05 08:37:35;;;;;;;41.83;20.60;;;;;;;15.78;48.71;98769.62;1642204;87;21103;-62
2023/01/05 08:40:01;;;;;;;35.03;17.60;;;;;;;15.58;48.73;98752.63;1642198;86;21064;-64
2023/01/05 08:42:28;;;;;;;37.08;18.95;;;;;;;15.44;49.14;98761.67;1642182;87;21072;-63
2023/01/05 08:44:55;;;;;;;34.03;17.02;;;;;;;15.71;48.72;98751.55;1642058;87;21174;-63
2023/01/05 08:47:21;;;;;;;30.27;18.90;;;;;;;15.33;49.31;98747.92;1642004;87;21088;-62
2023/01/05 08:49:48;;;;;;;27.40;17.48;;;;;;;15.76;48.83;98739.70;1642001;86;21576;-64
2023/01/05 08:52:15;;;;;;;28.60;16.55;;;;;;;15.54;49.36;98736.09;1642028;87;21107;-63
2023/01/05 08:54:42;;;;;;;28.73;17.00;;;;;;;16.21;48.24;98736.93;1642329;87;21070;-63
2023/01/05 08:57:09;;;;;;;33.10;18.48;;;;;;;16.24;47.99;98734.01;1641990;87;21962;-63
2023/01/05 08:59:36;;;;;;;30.52;17.77;;;;;;;16.08;48.19;98726.00;1642329;86;21658;-63
2023/01/05 09:02:03;;;;;;;36.35;19.92;;;;;;;16.86;46.99;98714.63;1642056;87;21091;-63
2023/01/05 09:04:30;;;;;;;29.10;17.17;;;;;;;17.01;46.39;98715.63;1643222;87;21089;-62
2023/01/05 09:06:56;;;;;;;34.18;18.75;;;;;;;17.31;45.98;98712.96;1649419;87;21615;-64
2023/01/05 09:09:23;;;;;;;29.37;17.50;;;;;;;17.32;45.86;98698.70;1649714;87;21184;-62
2023/01/05 09:11:50;;;;;;;30.90;17.00;;;;;;;16.91;46.40;98704.46;1649650;87;21069;-62
2023/01/05 09:14:18;;;;;;;30.88;18.35;;;;;;;17.34;46.13;98686.57;1649797;87;21046;-63
2023/01/05 09:16:45;;;;;;;26.15;14.83;;;;;;;17.38;45.73;98687.50;1649450;87;21109;-62
2023/01/05 09:19:11;;;;;;;25.02;14.63;;;;;;;17.56;45.14;98672.22;1649573;87;21133;-63
2023/01/05 09:21:38;;;;;;;23.02;11.60;;;;;;;18.11;44.84;98663.27;1649531;87;21260;-63
2023/01/05 09:24:06;;;;;;;20.92;12.45;;;;;;;16.82;46.45;98670.69;1649184;87;22139;-63
2023/01/05 09:26:33;;;;;;;22.75;12.13;;;;;;;17.35;45.94;98657.17;1649233;87;21083;-62
2023/01/05 09:29:00;;;;;;;20.08;11.90;;;;;;;17.55;45.64;98657.21;1649341;87;21106;-64
2023/01/05 09:31:27;;;;;;;20.30;10.10;;;;;;;17.84;45.42;98647.97;1647475;86;21135;-63
2023/01/05 09:33:53;;;;;;;23.67;11.00;;;;;;;17.79;45.25;98639.04;1642859;87;21277;-62
2023/01/05 09:36:20;;;;;;;19.23;9.85;;;;;;;17.71;45.33;98645.53;1624093;87;21587;-64
2023/01/05 09:38:49;;;;;;;16.23;10.13;;;;;;;18.17;44.86;98641.38;1642993;87;21130;-63
2023/01/05 09:41:26;;;;;;;16.62;9.80;;;;;;;18.48;43.99;98634.55;1643040;87;21780;-63
2023/01/05 09:43:57;;;;;;;18.07;9.48;;;;;;;19.06;42.82;98622.37;1642991;87;21043;-63
2023/01/05 09:46:35;;;;;;;16.75;10.30;;;;;;;18.70;43.39;98621.35;1642818;87;22179;-62
2023/01/05 09:49:05;;;;;;;20.75;10.78;;;;;;;18.89;42.95;98612.50;1642704;87;21042;-64
2023/01/05 09:51:32;;;;;;;18.67;9.55;;;;;;;18.55;43.50;98606.33;1642990;87;21102;-62
2023/01/05 09:53:59;;;;;;;17.55;10.35;;;;;;;19.34;42.64;98605.02;1642913;87;21019;-63
2023/01/05 09:56:30;;;;;;;18.57;9.93;;;;;;;19.26;42.60;98599.61;1642912;87;21081;-64
2023/01/05 09:59:14;;;;;;;14.53;9.20;;;;;;;18.90;43.05;98599.49;1642248;87;22191;-63
2023/01/05 10:01:41;;;;;;;14.83;7.78;;;;;;;19.19;42.60;98591.36;1643047;87;21042;-63
2023/01/05 10:04:15;;;;;;;15.85;8.55;;;;;;;18.08;45.08;98588.11;1643051;87;21238;-63
2023/01/05 10:06:45;;;;;;;16.48;10.05;;;;;;;17.96;45.09;98583.42;1642763;86;21131;-63
2023/01/05 10:09:17;;;;;;;20.27;10.15;;;;;;;18.27;44.33;98581.90;1643161;87;21090;-63
2023/01/05 10:15:13;;;;;;;15.65;9.78;;;;;;;18.24;44.22;98573.23;1642935;87;21093;-64
2023/01/05 10:17:40;;;;;;;16.40;9.53;;;;;;;18.56;44.10;98568.00;1642885;87;21720;-63
2023/01/05 10:20:30;;;;;;;15.05;8.40;;;;;;;18.29;44.71;98567.94;1642798;87;21078;-63
2023/01/05 10:23:06;;;;;;;16.97;9.60;;;;;;;18.97;43.50;98563.23;1642739;87;21042;-63
2023/01/05 10:25:44;;;;;;;15.85;9.40;;;;;;;17.15;46.03;98572.97;1642879;87;21182;-62
2023/01/05 10:28:29;;;;;;;16.42;9.70;;;;;;;16.04;49.44;98565.73;1639847;87;21101;-63
2023/01/05 10:31:15;;;;;;;14.95;9.15;;;;;;;16.56;48.49;98562.11;1642582;87;21078;-63
2023/01/05 10:33:53;;;;;;;15.50;9.25;;;;;;;17.49;47.20;98558.81;1664208;86;21529;-63
2023/01/05 10:36:56;;;;;;;15.78;9.55;;;;;;;17.45;46.96;98549.91;1664032;86;21104;-61
2023/01/05 10:39:38;;;;;;;13.43;8.28;;;;;;;17.58;46.94;98545.16;1664146;86;21685;-62
2023/01/05 10:42:47;;;;;;;15.98;8.73;;;;;;;16.99;48.03;98542.41;1663933;86;21077;-63
2023/01/05 10:45:16;;;;;;;15.08;9.15;;;;;;;16.76;48.68;98543.57;1651898;86;21613;-62
2023/01/05 10:47:44;;;;;;;13.95;8.55;;;;;;;16.55;49.09;98540.98;1651959;86;21094;-63
2023/01/05 10:50:39;;;;;;;18.37;10.32;;;;;;;16.85;48.98;98526.84;1652118;85;21085;-62
2023/01/05 10:53:16;;;;;;;17.50;8.80;;;;;;;16.66;49.38;98529.42;1652011;86;21542;-61
2023/01/05 10:56:05;;;;;;;14.15;8.38;;;;;;;16.78;49.31;98527.00;1651964;86;21084;-63
2023/01/05 10:58:37;;;;;;;15.40;8.23;;;;;;;16.41;50.11;98527.56;1652132;86;21073;-63
2023/01/05 11:01:15;;;;;;;14.87;9.00;;;;;;;16.76;49.82;98523.14;1652396;86;21121;-62
2023/01/05 11:03:45;;;;;;;14.03;8.33;;;;;;;16.68;49.71;98524.78;1642174;86;21121;-62
2023/01/05 11:06:21;;;;;;;15.98;9.20;;;;;;;17.10;49.29;98515.36;1647725;86;21155;-63
2023/01/05 11:08:49;;;;;;;16.35;8.75;;;;;;;18.02;47.42;98513.62;1646732;86;21073;-63
2023/01/05 11:11:24;;;;;;;15.43;8.25;;;;;;;18.00;47.23;98508.92;1646661;86;21139;-62
2023/01/05 11:13:56;;;;;;;15.13;8.33;;;;;;;17.95;47.35;98507.19;1650232;86;21089;-63
2023/01/05 11:16:27;;;;;;;11.20;7.45;;;;;;;17.64;47.68;98504.66;1651874;86;21094;-63
2023/01/05 11:19:03;;;;;;;12.60;7.53;;;;;;;17.79;47.62;98505.91;1652147;86;21237;-63
2023/01/05 11:21:43;;;;;;;20.48;8.43;;;;;;;17.53;48.20;98503.47;1652161;86;21065;-63
2023/01/05 11:24:32;;;;;;;14.78;7.67;;;;;;;18.30;46.68;98501.69;1652086;86;21046;-62
2023/01/05 11:27:05;;;;;;;14.18;6.95;;;;;;;18.12;47.01;98482.45;1651854;86;21165;-63
2023/01/05 11:29:31;;;;;;;13.08;7.67;;;;;;;17.88;47.21;98490.11;1648965;86;21061;-64
2023/01/05 11:32:02;;;;;;;11.60;6.83;;;;;;;17.31;48.38;98489.97;1651361;86;21590;-63
2023/01/05 11:34:48;;;;;;;14.15;7.30;;;;;;;17.12;49.01;98491.63;1649483;87;21121;-63
2023/01/05 11:37:29;;;;;;;18.67;7.37;;;;;;;17.43;48.72;98492.00;1649527;87;21109;-63
2023/01/05 11:40:00;;;;;;;10.75;6.92;;;;;;;17.08;49.22;98486.73;1649388;87;21106;-64
2023/01/05 11:42:32;;;;;;;11.88;7.40;;;;;;;17.62;48.16;98482.66;1649582;87;22170;-64
2023/01/05 11:45:06;;;;;;;13.60;6.95;;;;;;;18.04;47.36;98485.02;1649360;86;21104;-62
2023/01/05 11:47:39;;;;;;;10.32;6.62;;;;;;;17.46;48.46;98478.40;1649432;87;21593;-65
2023/01/05 11:50:17;;;;;;;10.55;6.70;;;;;;;17.79;48.05;98484.61;1649374;85;21093;-62
2023/01/05 11:52:47;;;;;;;11.25;6.65;;;;;;;17.70;48.23;98477.47;1649456;87;21050;-63
2023/01/05 14:28:24;;;;;;;12.55;7.42;;;;;;;11.63;100.00;98450.95;1796613;78;29093;-66
2023/01/05 14:30:52;;;;;;;8.55;5.58;;;;;;;12.03;100.00;98448.23;1771012;81;21266;-65
2023/01/05 14:33:19;;;;;;;9.88;6.00;;;;;;;12.01;100.00;98458.05;1715678;81;21355;-66
2023/01/05 14:35:46;;;;;;;9.30;6.00;;;;;;;12.10;100.00;98461.36;1771072;81;21039;-66
2023/01/05 14:38:22;;;;;;;7.78;5.33;;;;;;;12.19;100.00;98459.39;1770858;81;20984;-66
2023/01/05 14:40:55;;;;;;;9.70;5.70;;;;;;;12.38;100.00;98451.88;1771014;81;21049;-65
2023/01/05 14:43:31;;;;;;;9.55;5.97;;;;;;;12.29;100.00;98453.86;1771448;81;20945;-66
2023/01/05 14:46:14;;;;;;;9.20;5.53;;;;;;;12.48;100.00;98456.50;1771099;81;21349;-66
2023/01/05 14:49:06;;;;;;;8.78;5.53;;;;;;;12.73;100.00;98455.10;1771481;81;21029;-66